Latest Coastal Weather Observations for Portland Airport

IDV60701

Issued at 3:51 pm EST Wednesday 27 July 2016 (issued every 10 minutes, with the page automatically refreshed every 10 minutes)

About coastal observations | Map of coastal stations | Coastal observations for VIC | Marine services | Other Formats
Station Details ID: 090171 Name: CASHMORE AIRPORT Lat: -38.31 Lon: 141.47 Height: 80.9 m
Data from the previous 72 hours. | See also: Recent months at Portland Airport
Date/Time
EST
Temp
°C
Wind Pressure Rain since
9am
mm
Weather Cloud Vis
km
Sea
Height
m
Swell
Dir  Spd
kts
Gust
kts
hPa Trend Height
m
Period
s
Dir
27/03:30pm 10.7 WSW 19 27 1019.5 - 0.0 - Partly cloudy 10 - - - -
27/03:10pm 10.3 W 18 28 1019.3 - 0.0 - Cloudy 10 - - - -
27/03:00pm 10.3 W 19 25 1019.2 - 0.0 - Cloudy 10 - - - -
27/02:30pm 10.5 W 19 25 1018.8 - 0.0 - Partly cloudy 10 - - - -
27/02:00pm 10.4 W 18 25 1018.5 - 0.0 - Partly cloudy 10 - - - -
27/01:30pm 10.3 W 16 21 1018.4 - 0.0 - Partly cloudy 10 - - - -
27/01:00pm 10.5 WSW 18 23 1018.4 - 0.0 - Partly cloudy 10 - - - -
27/12:30pm 11.4 WSW 17 21 1018.2 - 0.0 - Partly cloudy 10 - - - -
27/12:00pm 10.1 WSW 17 23 1018.4 - 0.0 - Cloudy 10 - - - -
27/11:30am 10.0 WSW 15 22 1018.2 - 0.0 - Cloudy 10 - - - -
27/11:00am 9.6 WSW 13 19 1018.0 - 0.0 - Partly cloudy 10 - - - -
27/10:30am 10.1 WSW 15 22 1017.6 - 0.0 - Partly cloudy 10 - - - -
27/10:00am 9.2 WSW 11 17 1017.1 - 0.0 - Partly cloudy 10 - - - -
27/09:30am 9.0 SW 13 18 1017.0 - 0.0 - Partly cloudy 10 - - - -
27/09:00am 9.1 SW 13 19 1016.4 - 8.2 Rain Mostly cloudy 10 - - - -
27/08:30am 8.4 SW 11 16 1015.8 - 8.0 - Partly cloudy 10 - - - -
27/08:00am 8.3 SW 10 20 1015.4 - 8.0 - Partly cloudy 10 - - - -
27/07:30am 8.5 SSW 11 17 1014.7 - 8.0 - Partly cloudy 10 - - - -
27/07:00am 8.7 SW 9 14 1013.8 - 8.0 - Partly cloudy 10 - - - -
27/06:30am 8.3 SW 12 19 1013.1 - 8.0 - Partly cloudy 10 - - - -
27/06:00am 8.3 SW 14 20 1012.5 - 8.0 - Cloudy 10 - - - -
27/05:30am 8.7 SW 12 20 1011.4 - 8.0 - Partly cloudy 10 - - - -
27/05:00am 9.3 SSW 13 23 1010.4 - 8.0 - Cloudy 10 - - - -
27/04:51am 9.0 SSW 15 26 1010.2 - 8.0 - Partly cloudy 10 - - - -
27/04:30am 9.3 SSW 14 24 1009.5 - 8.0 - Partly cloudy 10 - - - -
27/04:17am 9.2 SSW 13 24 1009.1 - 8.0 - Partly cloudy 10 - - - -
27/04:00am 9.4 SSW 15 26 1008.6 - 8.0 - Partly cloudy 10 - - - -
27/03:55am 9.4 SSW 15 25 1008.4 - 8.0 - Partly cloudy 10 - - - -
27/03:54am 9.4 SSW 16 25 1008.4 - 8.0 - Partly cloudy 10 - - - -
27/03:42am 9.6 SSW 15 27 1008.0 - 8.0 - Partly cloudy 6 - - - -
27/03:41am 9.7 SSW 14 27 1007.9 - 8.0 - Partly cloudy 6 - - - -
27/03:38am 9.7 SSW 12 23 1007.8 - 7.8 - Partly cloudy 7 - - - -
27/03:34am 10.0 SSW 11 21 1007.8 - 7.6 - Partly cloudy 9 - - - -
27/03:30am 10.0 SSW 13 22 1007.5 - 7.6 - Partly cloudy 10 - - - -
27/03:19am 9.8 SW 11 15 1007.3 - 7.6 - Partly cloudy 10 - - - -
27/03:00am 10.0 SW 10 16 1006.8 - 7.2 Rain Cloudy 8 - - - -
27/02:30am 10.2 WSW 11 17 1006.0 - 6.6 - Partly cloudy 10 - - - -
27/02:00am 10.4 WSW 11 16 1005.3 - 6.6 - Partly cloudy 10 - - - -
27/01:30am 10.4 WSW 13 18 1005.0 - 6.6 - Partly cloudy 10 - - - -
27/01:00am 10.3 WSW 13 19 1004.3 - 6.6 - Partly cloudy 10 - - - -
27/12:30am 9.0 WNW 11 16 1003.8 - 6.6 - Partly cloudy 10 - - - -
27/12:00am 8.8 NW 11 14 1003.5 - 6.6 Rain Cloudy 10 - - - -
 
Date/Time
EST
Temp
°C
Wind Pressure Rain since
9am
mm
Weather Cloud Vis
km
Sea
Height
m
Swell
Dir  Spd
kts
Gust
kts
hPa Trend Height
m
Period
s
Dir
26/11:30pm 8.2 NW 10 14 1003.4 - 6.4 - Partly cloudy 7 - - - -
26/11:00pm 7.9 NNW 11 16 1002.9 - 6.2 - Partly cloudy 10 - - - -
26/10:30pm 7.7 NNW 11 16 1002.5 - 6.2 - Partly cloudy 10 - - - -
26/10:00pm 7.9 NNW 13 19 1002.2 - 6.2 - Partly cloudy 10 - - - -
26/09:30pm 8.1 NNW 13 18 1002.1 - 6.2 - Partly cloudy 10 - - - -
26/09:00pm 8.2 NNW 15 22 1002.1 - 6.0 - Cloudy 10 - - - -
26/08:30pm 8.2 NNW 14 23 1002.1 - 6.0 - Partly cloudy 10 - - - -
26/08:12pm 8.4 NNW 16 28 1002.0 - 6.0 - Partly cloudy 10 - - - -
26/08:00pm 8.3 NNW 15 23 1002.1 - 6.0 - Partly cloudy 10 - - - -
26/07:51pm 8.3 NNW 13 20 1002.2 - 6.0 - Partly cloudy 10 - - - -
26/07:30pm 8.2 NNW 14 20 1002.1 - 6.0 - Partly cloudy 10 - - - -
26/07:17pm 8.2 NNW 13 24 1002.1 - 6.0 - Partly cloudy 10 - - - -
26/07:00pm 8.0 NNW 13 20 1002.4 - 6.0 - Partly cloudy 10 - - - -
26/06:30pm 7.8 N 13 19 1002.7 - 5.6 - Partly cloudy 10 - - - -
26/06:00pm 7.7 NNW 13 19 1003.2 - 4.8 Rain Cloudy 10 - - - -
26/05:30pm 7.7 NNW 12 17 1003.4 - 3.6 - Partly cloudy 10 - - - -
26/05:00pm 7.8 NNW 14 21 1003.8 - 3.2 - Partly cloudy 10 - - - -
26/04:30pm 8.3 NNW 15 22 1004.3 - 2.8 - Partly cloudy 10 - - - -
26/04:00pm 8.8 NNW 16 26 1004.7 - 2.8 - Partly cloudy 10 - - - -
26/03:56pm 8.7 NNW 15 25 1004.8 - 2.8 - Partly cloudy 10 - - - -
26/03:30pm 8.8 NNW 14 20 1005.0 - 2.8 - Partly cloudy 10 - - - -
26/03:00pm 8.6 NNW 15 23 1005.4 - 2.8 - Cloudy 10 - - - -
26/02:30pm 8.3 NNW 14 20 1006.0 - 2.8 - Partly cloudy 10 - - - -
26/02:00pm 8.2 NNW 15 23 1006.6 - 2.8 - Partly cloudy 10 - - - -
26/01:30pm 7.5 NNW 14 22 1007.6 - 1.8 - Partly cloudy 10 - - - -
26/01:00pm 8.5 NNW 12 17 1007.7 - 1.4 - Partly cloudy 10 - - - -
26/12:30pm 7.5 NNW 10 15 1008.6 - 1.4 - Partly cloudy 10 - - - -
26/12:00pm 7.5 NNW 14 20 1009.3 - 1.2 - Mostly cloudy 10 - - - -
26/11:30am 7.8 NNW 13 18 1009.4 - 1.2 - Partly cloudy 10 - - - -
26/11:00am 7.4 NNW 13 19 1009.5 - 1.2 - Partly cloudy 10 - - - -
26/10:30am 6.8 N 9 13 1009.9 - 1.2 - Partly cloudy 10 - - - -
26/10:00am 5.8 NW 10 15 1010.6 - 0.6 - Partly cloudy 8 - - - -
26/09:30am 5.8 NNW 11 15 1010.2 - 0.0 - Partly cloudy 10 - - - -
26/09:00am 6.8 NNW 9 13 1010.1 - 12.0 Recent precip. Mostly cloudy 10 - - - -
26/08:30am 7.5 WNW 17 25 1009.9 - 11.8 - Partly cloudy 10 - - - -
26/08:18am 8.6 WNW 15 26 1009.8 - 11.8 - Partly cloudy 10 - - - -
26/08:00am 8.8 W 15 20 1009.6 - 11.8 - Partly cloudy 10 - - - -
26/07:30am 8.4 W 14 20 1009.8 - 11.8 - Partly cloudy 10 - - - -
26/07:00am 8.2 W 16 22 1009.6 - 11.6 - Partly cloudy 10 - - - -
26/06:30am 8.7 W 15 21 1009.3 - 11.6 - Partly cloudy 10 - - - -
26/06:00am 8.3 W 15 20 1009.1 - 11.6 - Cloudy 10 - - - -
26/05:30am 6.8 WNW 11 16 1009.2 - 11.6 - Partly cloudy 10 - - - -
26/05:03am 8.3 W 16 26 1009.0 - 11.6 - Partly cloudy 10 - - - -
26/05:00am 8.1 W 16 21 1009.0 - 11.6 - Partly cloudy 10 - - - -
26/04:30am 8.4 WSW 17 24 1009.0 - 11.6 - Partly cloudy 10 - - - -
26/04:09am 8.0 WSW 20 30 1009.1 - 11.6 - Partly cloudy 10 - - - -
26/04:00am 8.0 W 22 29 1009.0 - 11.6 - Partly cloudy 10 - - - -
26/03:30am 7.5 WSW 19 27 1009.0 - 11.6 - Partly cloudy 10 - - - -
26/03:06am 7.7 W 21 34 1008.8 - 11.6 - Partly cloudy 10 - - - -
26/03:01am 7.7 W 18 31 1008.9 - 11.6 - Partly cloudy 10 - - - -
26/03:00am 7.6 W 18 24 1008.9 - 11.6 Recent precip. Cloudy 10 - - - -
26/02:51am 6.8 WSW 23 35 1009.0 - 11.6 - Partly cloudy 5 - - - -
26/02:49am 6.8 W 23 35 1009.2 - 11.6 - Partly cloudy 6 - - - -
26/02:43am 8.4 W 17 27 1008.9 - 10.8 - Partly cloudy 10 - - - -
26/02:30am 8.1 W 20 29 1008.8 - 10.8 - Partly cloudy 10 - - - -
26/02:18am 8.1 W 19 29 1008.8 - 10.8 - Partly cloudy 10 - - - -
26/02:00am 8.0 W 21 29 1008.8 - 10.8 - Partly cloudy 10 - - - -
26/01:30am 7.9 W 18 30 1008.3 - 10.8 - Partly cloudy 10 - - - -
26/01:27am 7.4 W 15 27 1008.4 - 10.8 - Partly cloudy 10 - - - -
26/01:26am 7.2 W 15 19 1008.4 - 10.8 - Partly cloudy 10 - - - -
26/01:09am 6.1 W 23 35 1008.4 - 10.6 - Partly cloudy 6 - - - -
26/01:03am 8.9 W 20 31 1008.0 - 10.0 - Partly cloudy 10 - - - -
26/01:00am 8.7 W 20 27 1008.1 - 10.0 - Partly cloudy 10 - - - -
26/12:30am 8.8 W 22 33 1008.0 - 10.0 - Partly cloudy 10 - - - -
26/12:12am 7.9 W 21 31 1008.0 - 10.0 - Partly cloudy 10 - - - -
26/12:00am 8.6 W 21 30 1007.9 - 10.0 Recent precip. Cloudy 10 - - - -
 
Date/Time
EST
Temp
°C
Wind Pressure Rain since
9am
mm
Weather Cloud Vis
km
Sea
Height
m
Swell
Dir  Spd
kts
Gust
kts
hPa Trend Height
m
Period
s
Dir
25/11:30pm 7.8 W 22 35 1007.6 - 10.0 - Partly cloudy 10 - - - -
25/11:06pm 7.4 WSW 20 33 1007.8 - 9.8 - Partly cloudy 10 - - - -
25/11:00pm 7.0 WSW 19 31 1007.6 - 9.8 - Partly cloudy 10 - - - -
25/10:47pm 7.1 WSW 23 36 1007.3 - 9.6 - Partly cloudy 4 - - - -
25/10:45pm 7.7 WSW 22 30 1007.4 - 9.0 - Partly cloudy 6 - - - -
25/10:30pm 9.0 W 19 32 1006.9 - 8.4 - Partly cloudy 10 - - - -
25/10:00pm 7.8 WSW 20 36 1006.9 - 8.4 - Partly cloudy 10 - - - -
25/09:51pm 8.1 WSW 20 33 1006.9 - 8.4 - Partly cloudy 10 - - - -
25/09:49pm 8.4 WSW 20 35 1006.8 - 8.4 - Partly cloudy 10 - - - -
25/09:30pm 9.0 W 23 33 1006.2 - 8.4 - Partly cloudy 10 - - - -
25/09:00pm 7.0 W 28 45 1006.8 - 8.2 - Cloudy 10 - - - -
25/08:56pm 8.7 W 26 45 1006.2 - 8.2 - Partly cloudy 10 - - - -
25/08:31pm 8.1 W 20 31 1005.9 - 8.2 - Partly cloudy 10 - - - -
25/08:30pm 8.0 W 19 25 1006.1 - 8.2 - Partly cloudy 10 - - - -
25/08:01pm 9.3 W 26 38 1005.4 - 8.2 - Partly cloudy 10 - - - -
25/08:00pm 9.2 W 26 35 1005.5 - 8.2 - Partly cloudy 10 - - - -
25/07:30pm 9.2 W 30 41 1004.7 - 8.2 - Partly cloudy 10 - - - -
25/07:00pm 7.8 WNW 25 35 1004.3 - 8.2 - Partly cloudy 10 - - - -
25/06:30pm 9.2 W 23 34 1003.6 - 8.2 - Partly cloudy 10 - - - -
25/06:00pm 8.5 W 26 36 1003.4 - 8.2 Recent precip. Cloudy 10 - - - -
25/05:36pm 8.4 W 25 37 1003.0 - 8.2 - Partly cloudy 10 - - - -
25/05:30pm 8.5 W 25 33 1003.0 - 8.2 - Partly cloudy 10 - - - -
25/05:24pm 8.5 W 24 32 1002.7 - 8.2 - Partly cloudy 10 - - - -
25/05:10pm 6.5 W 31 55 1002.8 - 8.2 - Partly cloudy 4 - - - -
25/05:05pm 6.0 W 30 55 1002.3 - 8.2 - Partly cloudy 5 - - - -
25/05:04pm 7.2 W 29 55 1002.4 - 8.0 - Partly cloudy 10 - - - -
25/05:00pm 9.5 W 29 40 1002.0 - 7.8 - Partly cloudy 10 - - - -
25/04:30pm 9.4 W 32 48 1001.6 - 7.8 - Partly cloudy 10 - - - -
25/04:00pm 8.7 W 29 39 1000.8 - 7.6 - Partly cloudy 8 - - - -
25/03:44pm 9.6 WNW 25 40 1000.5 - 7.4 - Partly cloudy 10 - - - -
25/03:43pm 9.5 WNW 24 37 1000.5 - 7.4 - Partly cloudy 10 - - - -
25/03:31pm 9.0 WNW 21 31 1000.6 - 7.4 - Partly cloudy 10 - - - -
25/03:30pm 9.1 WNW 20 29 1001.0 - 7.4 - Partly cloudy 10 - - - -
25/03:27pm 8.9 WNW 21 34 1000.6 - 7.4 - Partly cloudy 10 - - - -
25/03:19pm 8.5 W 25 34 1001.3 - 7.4 - Partly cloudy 8 - - - -
25/03:12pm 8.4 W 30 47 1001.2 - 7.4 - Partly cloudy 3 - - - -
25/03:06pm 8.4 W 26 47 1000.6 - 7.0 - Partly cloudy 5 - - - -
25/03:05pm 9.1 WNW 25 45 1000.7 - 6.6 - Partly cloudy 6 - - - -
25/03:04pm 9.5 WNW 23 37 1000.7 - 6.4 - Partly cloudy 7 - - - -
25/03:02pm 9.5 WNW 22 32 1000.4 - 6.2 - Partly cloudy 9 - - - -
25/03:00pm 9.6 WNW 22 31 1000.3 - 6.0 Rain Cloudy 10 - - - -
25/02:57pm 9.6 WNW 23 35 1000.3 - 6.0 - Partly cloudy 10 - - - -
25/02:37pm 9.1 WNW 19 29 1000.2 - 5.6 - Partly cloudy 4 - - - -
25/02:30pm 8.8 WNW 19 29 1000.3 - 5.0 - Partly cloudy 7 - - - -
25/02:29pm 8.8 WNW 20 29 1000.4 - 5.0 - Partly cloudy 7 - - - -
25/02:10pm 8.4 WNW 24 41 1001.1 - 3.6 - Partly cloudy 4 - - - -
25/02:03pm 10.1 NW 22 33 999.6 - 2.0 - Partly cloudy 6 - - - -
25/02:00pm 10.3 NW 21 29 999.7 - 1.6 - Partly cloudy 6 - - - -
25/01:57pm 10.4 NW 22 29 999.5 - 1.2 - Partly cloudy 6 - - - -
25/01:31pm 10.5 NNW 18 28 999.7 - 0.4 - Partly cloudy 10 - - - -
25/01:30pm 10.5 NNW 18 26 999.8 - 0.0 - Partly cloudy 10 - - - -
25/01:06pm 10.7 NNW 19 29 1001.1 - 0.0 - Partly cloudy 10 - - - -
25/01:00pm 10.6 NNW 20 29 1001.1 - 0.0 - Partly cloudy 10 - - - -
25/12:45pm 11.1 NNW 16 26 1001.8 - 0.0 - Partly cloudy 10 - - - -
25/12:30pm 11.3 NNW 18 26 1002.4 - 0.0 - Partly cloudy 10 - - - -
25/12:13pm 11.3 NNW 17 28 1002.9 - 0.0 - Partly cloudy 10 - - - -
25/12:00pm 11.9 NNW 18 26 1003.4 - 0.0 - Mostly cloudy 10 - - - -
25/11:45am 11.6 NNW 16 26 1003.8 - 0.0 - Partly cloudy 10 - - - -
25/11:30am 11.5 NNW 16 24 1004.4 - 0.0 - Partly cloudy 10 - - - -
25/11:07am 11.0 NNW 15 25 1005.1 - 0.0 - Partly cloudy 10 - - - -
25/11:00am 11.1 NNW 15 23 1005.3 - 0.0 - Partly cloudy 10 - - - -
25/10:30am 10.9 NW 13 20 1005.7 - 0.0 - - 10 - - - -
25/10:00am 9.4 NW 14 20 1006.2 - 0.0 - Partly cloudy 10 - - - -
25/09:30am 8.6 NNW 13 21 1006.4 - 0.0 - Partly cloudy 10 - - - -
25/09:00am 8.5 NNW 12 18 1007.0 - 17.0 Recent precip. Cloudy 10 - - - -
25/08:30am 9.1 NW 14 23 1007.3 - 17.0 - Partly cloudy 9 - - - -
25/08:09am 9.5 WNW 15 26 1007.4 - 17.0 - Partly cloudy 10 - - - -
25/08:00am 10.1 WNW 13 22 1007.3 - 16.8 - Partly cloudy 10 - - - -
25/07:30am 9.7 W 15 22 1007.4 - 16.8 - Partly cloudy 10 - - - -
25/07:00am 9.7 W 14 20 1007.5 - 16.8 - Partly cloudy 10 - - - -
25/06:30am 9.7 W 17 23 1007.2 - 16.8 - Partly cloudy 10 - - - -
25/06:00am 9.9 W 20 27 1006.8 - 16.8 - Cloudy 10 - - - -
25/05:51am 9.9 W 17 27 1006.7 - 16.8 - Partly cloudy 10 - - - -
25/05:30am 9.5 WSW 15 20 1006.6 - 16.8 - Partly cloudy 10 - - - -
25/05:17am 9.5 WSW 18 28 1006.4 - 16.8 - Partly cloudy 10 - - - -
25/05:10am 8.9 WSW 15 23 1006.3 - 16.8 - Partly cloudy 10 - - - -
25/05:00am 9.4 WSW 16 21 1006.3 - 16.8 - Partly cloudy 6 - - - -
25/04:58am 9.3 WSW 16 21 1006.3 - 16.8 - Partly cloudy 6 - - - -
25/04:54am 9.1 SW 15 21 1006.1 - 16.2 - Partly cloudy 10 - - - -
25/04:45am 9.1 WSW 18 28 1006.2 - 16.2 - Partly cloudy 7 - - - -
25/04:43am 9.2 WSW 19 28 1006.2 - 16.2 - Partly cloudy 6 - - - -
25/04:37am 9.6 WSW 18 28 1006.0 - 16.2 - Partly cloudy 9 - - - -
25/04:30am 9.9 WSW 17 24 1005.8 - 15.8 - Partly cloudy 10 - - - -
25/04:00am 9.7 WSW 19 24 1005.5 - 15.8 - Partly cloudy 10 - - - -
25/03:34am 10.3 WSW 18 28 1005.3 - 15.8 - Partly cloudy 10 - - - -
25/03:30am 10.3 WSW 18 27 1005.2 - 15.8 - Partly cloudy 10 - - - -
25/03:19am 10.1 WSW 17 27 1005.1 - 15.8 - Partly cloudy 10 - - - -
25/03:00am 10.1 WSW 19 27 1004.9 - 15.6 Recent precip. Cloudy 10 - - - -
25/02:35am 9.7 WSW 17 24 1004.7 - 15.6 - Partly cloudy 10 - - - -
25/02:30am 9.5 WSW 18 26 1004.7 - 15.6 - Partly cloudy 10 - - - -
25/02:20am 9.6 WSW 17 27 1004.5 - 15.6 - Partly cloudy 6 - - - -
25/02:19am 9.8 WSW 17 25 1004.5 - 15.6 - Partly cloudy 6 - - - -
25/02:00am 10.0 W 19 27 1004.2 - 15.2 - Partly cloudy 10 - - - -
25/01:30am 10.0 W 17 26 1003.9 - 15.2 - Partly cloudy 10 - - - -
25/01:16am 10.3 W 17 29 1003.9 - 15.0 - Partly cloudy 10 - - - -
25/01:00am 9.9 W 17 24 1003.6 - 15.0 - Partly cloudy 10 - - - -
25/12:30am 9.9 W 17 23 1003.7 - 15.0 - Partly cloudy 10 - - - -
25/12:01am 9.7 W 16 26 1003.3 - 14.8 - Partly cloudy 10 - - - -
25/12:00am 9.8 W 15 23 1003.4 - 14.8 Recent precip. Cloudy 10 - - - -
 
Date/Time
EST
Temp
°C
Wind Pressure Rain since
9am
mm
Weather Cloud Vis
km
Sea
Height
m
Swell
Dir  Spd
kts
Gust
kts
hPa Trend Height
m
Period
s
Dir
24/11:30pm 8.3 WNW 13 18 1003.3 - 14.8 - Partly cloudy 8 - - - -
24/11:27pm 8.4 WNW 13 19 1003.2 - 14.8 - Partly cloudy 9 - - - -
24/11:08pm 7.7 NW 11 18 1003.1 - 14.0 - Partly cloudy 5 - - - -
24/11:00pm 7.5 NNW 12 19 1002.9 - 12.4 - Partly cloudy 10 - - - -
24/10:38pm 7.8 NW 17 24 1002.7 - 12.2 - Partly cloudy 10 - - - -
24/10:30pm 7.6 NW 15 21 1002.6 - 12.2 - Partly cloudy 8 - - - -
24/10:22pm 7.3 NW 13 19 1002.6 - 12.2 - Partly cloudy 6 - - - -
24/10:13pm 7.1 NNW 12 18 1002.6 - 11.2 - Partly cloudy 10 - - - -
24/10:00pm 7.2 NW 12 17 1002.8 - 11.2 - Partly cloudy 5 - - - -
24/09:41pm 7.1 NW 12 18 1002.3 - 9.6 - Partly cloudy 6 - - - -
24/09:30pm 7.2 NNW 12 17 1002.1 - 8.8 - Partly cloudy 7 - - - -
24/09:19pm 7.2 NW 13 19 1002.3 - 8.4 - Partly cloudy 8 - - - -
24/09:00pm 7.3 NW 13 19 1002.2 - 7.8 Rain Cloudy 4 - - - -
24/08:54pm 7.4 NW 13 19 1002.2 - 7.0 - Partly cloudy 6 - - - -
24/08:30pm 7.6 NNW 11 19 1001.6 - 5.8 - Partly cloudy 10 - - - -
24/08:04pm 7.7 NNW 13 21 1001.5 - 5.8 - Partly cloudy 10 - - - -
24/08:00pm 7.9 NW 14 21 1001.5 - 5.8 - Partly cloudy 10 - - - -
24/07:33pm 7.9 NW 11 15 1001.4 - 5.8 - Partly cloudy 10 - - - -
24/07:30pm 7.9 NW 10 15 1001.4 - 5.8 - Partly cloudy 10 - - - -
24/07:00pm 7.7 NW 14 22 1000.8 - 5.4 - Partly cloudy 8 - - - -
24/06:35pm 7.9 NW 11 17 1000.5 - 3.8 - Partly cloudy 10 - - - -
24/06:30pm 7.9 NW 11 16 1000.5 - 3.6 - Partly cloudy 10 - - - -
24/06:24pm 7.9 NW 12 16 1000.4 - 3.4 - Partly cloudy 6 - - - -
24/06:00pm 8.0 NNW 13 19 1000.1 - 2.2 Recent precip. Cloudy 10 - - - -
24/05:30pm 7.9 NNW 13 20 999.8 - 1.6 - Partly cloudy 10 - - - -
24/05:00pm 7.9 NNW 13 22 999.8 - 1.4 - Partly cloudy 10 - - - -
24/04:30pm 7.9 NNW 16 26 999.6 - 0.8 - Partly cloudy 10 - - - -
24/04:03pm 8.0 NNW 15 26 999.8 - 0.6 - Partly cloudy 10 - - - -
24/04:00pm 8.1 NNW 13 22 999.9 - 0.6 - Partly cloudy 10 - - - -

Other Formats:

Comma delimited format used in spreadsheet applications
http://www.bom.gov.au/fwo/IDV60701/IDV60701.94828.axf

JavaScript Object Notation format (JSON) in row-major order
http://www.bom.gov.au/fwo/IDV60701/IDV60701.94828.json